VOZ1523 YMML-YMLT
Flight info
| Callsign | VOZ1523 |
|---|---|
| Flight time | N/A |
| Altitude | 39000 |
| Route | SUNTI H169 IRSOM W105 LT |
| Aircraft | B737/M-SDE2E3FGHIRWXY/LB1 |
Departure
| Time | N/A |
|---|---|
| Airport | Melbourne Airport (YMML) |
Arrival
| Time | 2026-04-14 14:09 |
|---|---|
| Airport | Launceston Airport (YMLT) |
| Time | Latitude | Longitude | Altitude | Speed | Heading |
|---|---|---|---|---|---|
| 2026-04-14 13:57 | -41.33622 | 146.77793 | 14456 ft | 394 kts | 128° |
| 2026-04-14 13:58 | -41.35114 | 146.80838 | 13855 ft | 390 kts | 130° |
| 2026-04-14 13:58 | -41.36615 | 146.83834 | 13264 ft | 386 kts | 129° |
| 2026-04-14 13:58 | -41.38050 | 146.86845 | 12683 ft | 383 kts | 128° |
| 2026-04-14 13:58 | -41.39456 | 146.89842 | 12110 ft | 380 kts | 127° |
| 2026-04-14 13:59 | -41.40853 | 146.92815 | 11534 ft | 377 kts | 127° |
| 2026-04-14 13:59 | -41.42208 | 146.95790 | 10983 ft | 374 kts | 127° |
| 2026-04-14 13:59 | -41.43598 | 146.98696 | 10438 ft | 371 kts | 128° |
| 2026-04-14 13:59 | -41.44927 | 147.01521 | 10249 ft | 358 kts | 128° |
| 2026-04-14 14:00 | -41.46249 | 147.04263 | 10079 ft | 343 kts | 129° |
| 2026-04-14 14:00 | -41.47502 | 147.06856 | 9946 ft | 320 kts | 129° |
| 2026-04-14 14:00 | -41.48712 | 147.09360 | 9401 ft | 324 kts | 128° |
| 2026-04-14 14:00 | -41.49921 | 147.11874 | 8996 ft | 321 kts | 128° |
| 2026-04-14 14:01 | -41.51114 | 147.14374 | 8609 ft | 318 kts | 128° |
| 2026-04-14 14:01 | -41.52295 | 147.16858 | 8205 ft | 315 kts | 128° |
| 2026-04-14 14:01 | -41.53067 | 147.18486 | 7939 ft | 313 kts | 127° |
| 2026-04-14 14:01 | -41.54264 | 147.20876 | 7542 ft | 305 kts | 136° |
| 2026-04-14 14:02 | -41.55865 | 147.22624 | 7020 ft | 296 kts | 154° |
| 2026-04-14 14:02 | -41.57619 | 147.24041 | 6566 ft | 291 kts | 155° |
| 2026-04-14 14:02 | -41.59854 | 147.25836 | 6042 ft | 275 kts | 154° |
| 2026-04-14 14:02 | -41.61457 | 147.27142 | 5657 ft | 265 kts | 153° |
| 2026-04-14 14:03 | -41.62504 | 147.28002 | 5398 ft | 259 kts | 152° |
| 2026-04-14 14:03 | -41.64020 | 147.29253 | 5028 ft | 256 kts | 153° |
| 2026-04-14 14:03 | -41.65545 | 147.30511 | 4710 ft | 259 kts | 152° |
| 2026-04-14 14:03 | -41.67747 | 147.31415 | 4196 ft | 247 kts | 189° |
| 2026-04-14 14:04 | -41.69311 | 147.30740 | 3885 ft | 233 kts | 217° |
| 2026-04-14 14:04 | -41.70110 | 147.29817 | 3700 ft | 226 kts | 232° |
| 2026-04-14 14:04 | -41.70841 | 147.28049 | 3599 ft | 214 kts | 254° |
| 2026-04-14 14:04 | -41.70959 | 147.26090 | 3471 ft | 207 kts | 277° |
| 2026-04-14 14:05 | -41.70511 | 147.24299 | 3388 ft | 207 kts | 296° |
| 2026-04-14 14:05 | -41.69618 | 147.22789 | 3286 ft | 208 kts | 321° |
| 2026-04-14 14:05 | -41.68248 | 147.22330 | 3185 ft | 208 kts | 9° |
| 2026-04-14 14:05 | -41.66898 | 147.23134 | 3121 ft | 213 kts | 24° |
| 2026-04-14 14:06 | -41.65581 | 147.23929 | 3019 ft | 200 kts | 19° |
| 2026-04-14 14:06 | -41.64319 | 147.24577 | 2861 ft | 194 kts | 18° |
| 2026-04-14 14:06 | -41.63003 | 147.25250 | 2185 ft | 213 kts | 23° |
| 2026-04-14 14:06 | -41.61770 | 147.26281 | 1959 ft | 205 kts | 32° |
| 2026-04-14 14:07 | -41.60502 | 147.26774 | 1792 ft | 182 kts | 348° |
| 2026-04-14 14:07 | -41.59546 | 147.25948 | 1622 ft | 159 kts | 296° |
| 2026-04-14 14:07 | -41.59065 | 147.24714 | 1448 ft | 144 kts | 318° |
| 2026-04-14 14:07 | -41.58119 | 147.24124 | 1266 ft | 149 kts | 345° |
| 2026-04-14 14:08 | -41.57310 | 147.23522 | 1335 ft | 125 kts | 317° |
| 2026-04-14 14:08 | -41.56586 | 147.22887 | 1104 ft | 123 kts | 329° |
| 2026-04-14 14:08 | -41.55864 | 147.22279 | 824 ft | 122 kts | 323° |
| 2026-04-14 14:08 | -41.55172 | 147.21681 | 617 ft | 114 kts | 324° |
| 2026-04-14 14:09 | -41.54571 | 147.21156 | 591 ft | 89 kts | 326° |
| 2026-04-14 14:09 | -41.54180 | 147.20821 | 591 ft | 45 kts | 327° |
| 2026-04-14 14:09 | -41.54039 | 147.20665 | 589 ft | 18 kts | 280° |
| 2026-04-14 14:09 | -41.54104 | 147.20567 | 583 ft | 13 kts | 163° |
| 2026-04-14 14:10 | -41.54181 | 147.20629 | 582 ft | 13 kts | 147° |
| 2026-04-14 14:10 | -41.54254 | 147.20691 | 583 ft | 12 kts | 149° |
| 2026-04-14 14:10 | -41.54288 | 147.20669 | 582 ft | 1 kts | 299° |
| 2026-04-14 14:10 | -41.54278 | 147.20662 | 582 ft | 3 kts | 329° |
| 2026-04-14 14:11 | -41.54264 | 147.20635 | 582 ft | 0 kts | 302° |